Terminal Aerodrome Forecast
Issued by NWS Sterling, VA

Current Version | Previous Version | Text Only | Print | Product List | Glossary Off
Versions: 1 2 3 4 5 6 7 8 9 10 11 12 13 14 15 16 17 18 19 20 21 22 23 24 25 26 27 28 29 30

000
FTUS41 KLWX 240843 AAA
TAFDCA
TAF AMD
KDCA 240843Z 2409/2506 23004KT P6SM BKN060 BKN250
     FM241200 26005KT P6SM BKN050
     FM250500 33004KT P6SM SCT060=

USA.gov is the U.S. government's official web portal to all federal, state and local government web resources and services.